Time;durP1;ratioP1;P1;durP2;ratioP2;P2;SDS_P1;SDS_P2;PMS_P1;PMS_P2;Temp;Humidity;BMP_temperature;BMP_pressure;BME280_temperature;BME280_humidity;BME280_pressure;Samples;Min_cycle;Max_cycle;Signal;HPM_P1;HPM_P2
2023/04/17 00:00:01;;;;;;;304.23;117.75;;;;;;;12.85;96.48;98895.25;341192;28;1417;-73
2023/04/17 00:00:12;;;;;;;306.07;119.43;;;;;;;12.86;96.16;98896.94;340386;29;1904;-73
2023/04/17 00:00:22;;;;;;;306.77;117.97;;;;;;;12.86;95.73;98891.69;338098;29;1086;-73
2023/04/17 00:00:33;;;;;;;309.03;120.50;;;;;;;12.89;95.59;98896.75;337182;29;1991;-73
2023/04/17 00:00:43;;;;;;;309.85;122.05;;;;;;;12.91;95.38;98892.25;337934;29;2078;-73
2023/04/17 00:00:54;;;;;;;309.10;124.33;;;;;;;12.91;95.11;98889.63;338061;29;1527;-73
2023/04/17 00:01:04;;;;;;;310.00;123.43;;;;;;;12.91;94.86;98889.63;331412;29;2161;-74
2023/04/17 00:01:14;;;;;;;309.57;121.63;;;;;;;12.92;94.91;98893.94;328008;29;1663;-74
2023/04/17 00:01:25;;;;;;;310.02;119.80;;;;;;;12.94;94.91;98897.31;330454;29;1283;-73
2023/04/17 00:01:36;;;;;;;308.53;120.07;;;;;;;12.93;94.56;98893.00;329414;29;1001;-73
2023/04/17 00:01:46;;;;;;;307.60;120.18;;;;;;;12.94;94.50;98896.47;332835;29;1477;-73
2023/04/17 00:01:57;;;;;;;305.17;119.80;;;;;;;12.95;94.50;98900.78;332055;29;2085;-73
2023/04/17 00:02:09;;;;;;;302.80;118.63;;;;;;;12.95;94.39;98899.00;329424;30;871;-73
2023/04/17 00:02:20;;;;;;;301.65;118.68;;;;;;;12.97;94.23;98893.66;332230;29;2237;-73
2023/04/17 00:02:30;;;;;;;302.23;118.67;;;;;;;12.97;94.26;98901.53;326833;30;2496;-73
2023/04/17 00:02:41;;;;;;;304.13;120.25;;;;;;;12.99;94.27;98900.50;321702;30;1833;-73
2023/04/17 00:02:51;;;;;;;307.87;121.90;;;;;;;12.99;94.04;98897.88;323816;30;2170;-73
2023/04/17 00:03:02;;;;;;;308.98;122.90;;;;;;;12.96;94.38;98897.22;325765;30;2756;-73
2023/04/17 00:03:12;;;;;;;306.93;120.60;;;;;;;12.94;93.96;98899.94;325607;30;2717;-73
2023/04/17 00:03:23;;;;;;;304.10;119.93;;;;;;;12.91;94.05;98894.88;323269;30;1315;-73
2023/04/17 00:03:33;;;;;;;302.93;119.67;;;;;;;12.89;94.41;98891.50;323863;30;1860;-73
2023/04/17 00:03:43;;;;;;;302.70;121.05;;;;;;;12.86;94.15;98896.94;321634;30;2769;-73
2023/04/17 00:03:56;;;;;;;302.37;120.20;;;;;;;12.80;94.58;98899.94;321972;30;1184;-73
2023/04/17 00:04:09;;;;;;;302.77;118.07;;;;;;;12.74;94.79;98902.94;321616;30;2286;-73
2023/04/17 00:04:20;;;;;;;303.75;116.80;;;;;;;12.64;95.41;98902.66;323390;30;2431;-73
2023/04/17 00:04:31;;;;;;;305.80;116.70;;;;;;;12.60;95.73;98905.56;318675;30;2871;-74
2023/04/17 00:04:42;;;;;;;305.85;118.47;;;;;;;12.55;95.90;98897.16;315501;30;3191;-73
2023/04/17 00:04:53;;;;;;;306.02;118.35;;;;;;;12.53;96.22;98893.78;315850;31;2085;-73
2023/04/17 00:05:03;;;;;;;306.38;119.93;;;;;;;12.45;96.64;98898.63;317238;30;3099;-73
2023/04/17 00:05:15;;;;;;;308.00;121.17;;;;;;;12.31;97.37;98894.19;318338;30;3789;-73
2023/04/17 00:05:26;;;;;;;305.88;119.90;;;;;;;12.26;98.18;98897.09;311810;31;1335;-73
2023/04/17 00:05:37;;;;;;;306.30;116.88;;;;;;;12.22;98.65;98890.34;308537;32;1618;-73
2023/04/17 00:05:48;;;;;;;304.48;115.85;;;;;;;12.13;99.10;98890.88;308363;31;2504;-73
2023/04/17 00:05:58;;;;;;;303.80;116.85;;;;;;;12.08;99.68;98892.94;308910;31;2769;-73
2023/04/17 00:06:08;;;;;;;301.70;117.20;;;;;;;12.08;100.00;98898.19;305382;32;1270;-73
2023/04/17 00:06:19;;;;;;;302.92;117.70;;;;;;;12.07;100.00;98891.25;305864;32;3192;-73
2023/04/17 00:06:32;;;;;;;307.37;117.70;;;;;;;12.09;100.00;98894.66;303412;32;3556;-73
2023/04/17 00:06:43;;;;;;;308.67;117.30;;;;;;;12.14;100.00;98895.19;302063;32;4209;-73
2023/04/17 00:06:53;;;;;;;305.77;116.37;;;;;;;12.18;100.00;98891.44;302139;32;904;-73
2023/04/17 00:07:04;;;;;;;304.48;116.43;;;;;;;12.22;100.00;98899.97;302006;32;4775;-73
2023/04/17 00:07:15;;;;;;;302.85;114.75;;;;;;;12.28;100.00;98897.00;301090;32;4557;-73
2023/04/17 00:07:27;;;;;;;304.17;115.47;;;;;;;12.32;100.00;98896.72;301658;32;1502;-72
2023/04/17 00:07:37;;;;;;;302.65;116.25;;;;;;;12.27;99.79;98898.78;297189;33;878;-72
2023/04/17 00:07:48;;;;;;;307.25;117.80;;;;;;;12.28;100.00;98897.00;296377;33;4989;-72
2023/04/17 00:08:01;;;;;;;306.03;117.23;;;;;;;12.28;99.83;98891.75;295349;33;3630;-72
2023/04/17 00:08:11;;;;;;;302.30;114.95;;;;;;;12.29;99.75;98896.91;296086;33;1239;-72
2023/04/17 00:08:22;;;;;;;301.87;115.10;;;;;;;12.24;99.93;98898.97;293750;33;1388;-72
2023/04/17 00:08:33;;;;;;;303.07;114.70;;;;;;;12.25;100.00;98890.16;290012;33;4511;-74
2023/04/17 00:08:43;;;;;;;303.65;114.97;;;;;;;12.26;99.90;98897.09;286919;34;5506;-73
2023/04/17 00:08:54;;;;;;;305.20;115.55;;;;;;;12.29;99.88;98889.03;286417;34;1110;-73
2023/04/17 00:09:05;;;;;;;305.55;115.90;;;;;;;12.33;99.90;98894.94;284717;34;6346;-73
2023/04/17 00:09:15;;;;;;;305.30;115.33;;;;;;;12.36;99.30;98891.31;283147;34;6857;-73
2023/04/17 00:09:25;;;;;;;304.20;115.37;;;;;;;12.37;99.65;98885.13;285451;34;1204;-73
2023/04/17 00:09:36;;;;;;;306.10;116.87;;;;;;;12.43;99.12;98896.09;282661;34;5996;-73
2023/04/17 00:09:47;;;;;;;309.77;118.55;;;;;;;12.44;98.99;98889.06;282981;34;6926;-73
2023/04/17 00:09:57;;;;;;;309.38;117.82;;;;;;;12.48;99.00;98895.81;285438;34;7151;-73
2023/04/17 00:10:08;;;;;;;308.87;116.77;;;;;;;12.47;98.59;98888.88;283673;34;866;-73
2023/04/17 00:10:19;;;;;;;304.75;116.68;;;;;;;12.48;98.66;98890.56;283042;34;5198;-73
2023/04/17 00:10:29;;;;;;;306.87;117.50;;;;;;;12.50;98.62;98884.28;283431;34;6311;-74
2023/04/17 00:10:40;;;;;;;304.07;118.50;;;;;;;12.52;98.08;98892.94;287222;34;2045;-73
2023/04/17 00:10:50;;;;;;;303.67;117.00;;;;;;;12.56;98.26;98890.97;283266;34;6490;-73
2023/04/17 00:11:00;;;;;;;301.80;116.30;;;;;;;12.59;97.97;98888.97;280480;34;7828;-73
2023/04/17 00:11:11;;;;;;;302.50;115.82;;;;;;;12.60;97.73;98889.81;281767;35;1475;-73
2023/04/17 00:11:21;;;;;;;304.57;117.03;;;;;;;12.61;97.75;98889.72;281005;34;8395;-72
2023/04/17 00:11:32;;;;;;;308.30;118.88;;;;;;;12.61;97.83;98891.50;279817;34;9163;-72
2023/04/17 00:11:42;;;;;;;309.77;120.73;;;;;;;12.63;97.76;98893.09;280525;34;8469;-72
2023/04/17 00:11:53;;;;;;;306.98;118.82;;;;;;;12.64;97.57;98891.31;281381;35;1561;-72
2023/04/17 00:13:35;;;;;;;296.45;110.50;;;;;;;12.57;98.04;98900.50;2502501;27;20475;-72
2023/04/17 00:13:45;;;;;;;307.75;116.95;;;;;;;12.58;98.13;98886.44;353940;27;1172;-72
2023/04/17 00:13:55;;;;;;;308.53;116.87;;;;;;;12.58;97.78;98881.19;350079;28;1195;-72
2023/04/17 00:14:06;;;;;;;310.03;117.67;;;;;;;12.59;97.55;98890.75;348887;28;1171;-72
2023/04/17 00:14:16;;;;;;;306.52;116.82;;;;;;;12.60;97.29;98887.19;346264;28;1231;-72
2023/04/17 00:14:27;;;;;;;305.90;115.83;;;;;;;12.63;97.43;98894.88;348943;28;1203;-72
2023/04/17 00:14:37;;;;;;;308.83;114.05;;;;;;;12.62;97.36;98885.31;349025;28;820;-72
2023/04/17 00:14:47;;;;;;;309.37;114.97;;;;;;;12.63;97.14;98885.22;348973;28;834;-72
2023/04/17 00:14:58;;;;;;;309.27;117.28;;;;;;;12.57;96.90;98890.84;349342;28;1475;-72
2023/04/17 00:15:09;;;;;;;307.63;118.50;;;;;;;12.57;97.34;98884.75;348294;28;1912;-73
2023/04/17 00:15:19;;;;;;;310.63;120.65;;;;;;;12.57;97.24;98890.00;348505;28;2138;-73
2023/04/17 00:15:29;;;;;;;311.37;119.87;;;;;;;12.56;97.17;98883.91;350920;28;855;-73
2023/04/17 00:15:40;;;;;;;307.75;119.20;;;;;;;12.61;97.29;98888.88;351578;28;1334;-73
2023/04/17 00:15:50;;;;;;;305.03;117.93;;;;;;;12.60;97.18;98890.66;348021;28;830;-73
2023/04/17 00:16:01;;;;;;;304.08;117.07;;;;;;;12.58;97.17;98886.44;349398;28;1330;-72
2023/04/17 00:16:12;;;;;;;305.47;118.00;;;;;;;12.59;97.27;98890.75;348805;28;764;-72
2023/04/17 00:16:22;;;;;;;305.98;116.95;;;;;;;12.59;97.39;98893.38;350715;28;1269;-72
2023/04/17 00:16:33;;;;;;;309.58;119.30;;;;;;;12.60;97.49;98895.91;351760;28;892;-72
2023/04/17 00:16:43;;;;;;;311.13;119.50;;;;;;;12.59;97.46;98888.97;350332;28;869;-72
2023/04/17 00:16:54;;;;;;;307.35;117.90;;;;;;;12.61;97.50;98896.75;352382;28;1352;-72
2023/04/17 00:17:04;;;;;;;305.77;116.40;;;;;;;12.64;97.61;98889.53;353103;28;1834;-72
2023/04/17 00:17:14;;;;;;;303.30;116.28;;;;;;;12.65;97.62;98887.75;352946;28;863;-72
2023/04/17 00:17:25;;;;;;;302.80;117.57;;;;;;;12.69;97.44;98888.41;348801;28;1009;-72
2023/04/17 00:17:35;;;;;;;304.58;118.80;;;;;;;12.70;97.57;98896.19;349733;28;1297;-72
2023/04/17 00:17:46;;;;;;;308.73;119.00;;;;;;;12.69;97.49;98894.50;347414;28;1183;-73
2023/04/17 00:17:56;;;;;;;309.88;119.50;;;;;;;12.74;97.50;98896.84;345527;28;1528;-72
2023/04/17 00:18:07;;;;;;;307.10;119.67;;;;;;;12.75;97.39;98888.88;344962;28;790;-72
2023/04/17 00:18:17;;;;;;;305.80;120.07;;;;;;;12.76;97.15;98895.81;348709;28;980;-72
2023/04/17 00:18:27;;;;;;;305.48;120.20;;;;;;;12.77;97.06;98892.25;346849;28;1912;-72
2023/04/17 00:18:38;;;;;;;305.03;120.33;;;;;;;12.78;96.96;98893.09;346000;28;1118;-72
2023/04/17 00:18:49;;;;;;;306.30;121.05;;;;;;;12.78;96.92;98893.09;344867;28;1270;-72
2023/04/17 00:18:59;;;;;;;306.42;121.65;;;;;;;12.78;96.61;98893.94;346161;28;831;-72
2023/04/17 00:19:10;;;;;;;307.23;122.40;;;;;;;12.80;96.61;98892.06;347414;28;1165;-72
2023/04/17 00:19:20;;;;;;;306.50;120.72;;;;;;;12.79;96.22;98893.00;346238;28;864;-72
2023/04/17 00:19:30;;;;;;;307.07;121.50;;;;;;;12.79;96.31;98895.63;346948;28;1123;-72
2023/04/17 00:19:41;;;;;;;307.75;120.80;;;;;;;12.79;96.43;98895.63;345576;28;1345;-72
2023/04/17 00:19:51;;;;;;;308.33;119.87;;;;;;;12.78;96.00;98882.59;340801;29;797;-72
2023/04/17 00:20:06;;;;;;;308.90;118.18;;;;;;;12.79;96.08;98887.75;341835;28;1122;-72
2023/04/17 00:20:17;;;;;;;308.08;117.45;;;;;;;12.79;96.08;98886.91;345383;28;1446;-72
2023/04/17 00:20:27;;;;;;;308.93;117.53;;;;;;;12.80;96.02;98891.22;345149;28;1226;-72
2023/04/17 00:20:37;;;;;;;306.70;117.43;;;;;;;12.77;96.07;98889.63;346224;28;872;-72
2023/04/17 00:20:48;;;;;;;305.48;118.68;;;;;;;12.76;96.00;98890.56;345003;28;1585;-72
2023/04/17 00:20:58;;;;;;;302.80;117.00;;;;;;;12.74;95.89;98887.19;343294;28;1359;-72
2023/04/17 00:21:09;;;;;;;304.15;116.90;;;;;;;12.73;96.06;98888.13;341928;28;1186;-72
2023/04/17 00:21:19;;;;;;;306.30;118.27;;;;;;;12.74;96.18;98888.97;339833;29;1473;-72
2023/04/17 00:21:30;;;;;;;314.15;121.30;;;;;;;12.75;96.11;98888.88;342195;28;1463;-72
2023/04/17 00:21:41;;;;;;;313.70;120.97;;;;;;;12.74;96.10;98883.72;341441;28;1509;-72
2023/04/17 00:21:51;;;;;;;310.23;119.50;;;;;;;12.76;95.93;98890.56;340709;29;927;-72
2023/04/17 00:22:01;;;;;;;305.70;119.03;;;;;;;12.77;96.14;98892.25;340178;29;1314;-72
2023/04/17 00:22:12;;;;;;;305.03;119.73;;;;;;;12.78;96.22;98896.56;340902;28;1742;-72
2023/04/17 00:22:22;;;;;;;306.35;119.55;;;;;;;12.80;95.94;98891.22;340776;29;1063;-72
2023/04/17 00:22:33;;;;;;;305.47;119.07;;;;;;;12.79;96.16;98890.38;336441;29;1911;-72
2023/04/17 00:22:43;;;;;;;305.48;118.55;;;;;;;12.81;96.19;98883.25;339927;29;1191;-72
2023/04/17 00:22:53;;;;;;;304.10;120.07;;;;;;;12.80;95.70;98886.81;340204;29;1350;-72
2023/04/17 00:23:04;;;;;;;304.07;121.03;;;;;;;12.77;95.69;98880.91;338259;29;833;-72
2023/04/17 00:23:14;;;;;;;306.05;121.47;;;;;;;12.81;96.08;98887.66;338053;29;1371;-72
2023/04/17 00:23:25;;;;;;;312.90;121.60;;;;;;;12.79;96.02;98885.13;338301;29;1502;-72
2023/04/17 00:23:35;;;;;;;314.95;122.82;;;;;;;12.75;96.09;98893.28;339548;29;904;-72
2023/04/17 00:23:45;;;;;;;313.90;121.30;;;;;;;12.68;96.26;98891.97;339701;28;1838;-72
2023/04/17 00:23:56;;;;;;;308.58;122.18;;;;;;;12.68;96.56;98892.81;333076;29;1797;-72
2023/04/17 00:24:06;;;;;;;307.40;121.43;;;;;;;12.64;96.28;98893.94;333178;29;1525;-72
2023/04/17 00:24:17;;;;;;;305.63;122.13;;;;;;;12.61;96.39;98891.50;336017;29;2049;-72
2023/04/17 00:24:27;;;;;;;304.60;119.93;;;;;;;12.61;96.56;98892.34;339029;28;2239;-72
2023/04/17 00:24:37;;;;;;;305.97;120.07;;;;;;;12.62;96.54;98894.03;339389;29;1420;-74
2023/04/17 00:24:48;;;;;;;307.23;117.28;;;;;;;12.59;96.68;98890.75;338790;29;1551;-73
2023/04/17 00:24:58;;;;;;;307.90;118.33;;;;;;;12.58;96.69;98896.94;335813;29;1194;-73
2023/04/17 00:25:13;;;;;;;307.38;118.32;;;;;;;12.51;96.81;98893.03;337910;29;1313;-72
2023/04/17 00:25:24;;;;;;;307.90;117.53;;;;;;;12.48;97.52;98896.66;337535;29;1745;-72
2023/04/17 00:25:34;;;;;;;307.70;116.67;;;;;;;12.48;97.59;98895.81;334404;29;795;-72
2023/04/17 00:25:45;;;;;;;308.73;115.32;;;;;;;12.48;97.49;98898.44;336086;29;2078;-72
2023/04/17 00:25:55;;;;;;;305.07;116.37;;;;;;;12.50;97.26;98888.69;336292;29;2322;-72
2023/04/17 00:26:05;;;;;;;303.80;114.22;;;;;;;12.51;97.69;98893.03;333014;29;1299;-72
2023/04/17 00:26:16;;;;;;;304.03;115.17;;;;;;;12.53;97.58;98899.88;329779;29;2507;-72
2023/04/17 00:26:26;;;;;;;306.23;115.43;;;;;;;12.54;97.57;98891.06;327351;29;2705;-72
2023/04/17 00:26:37;;;;;;;307.17;116.97;;;;;;;12.57;97.54;98900.50;330636;29;1086;-72
2023/04/17 00:26:47;;;;;;;307.23;117.87;;;;;;;12.59;97.38;98899.47;328834;29;2641;-72
2023/04/17 00:26:57;;;;;;;305.25;118.20;;;;;;;12.59;97.25;98896.84;328386;29;1900;-72
2023/04/17 00:27:08;;;;;;;305.03;117.83;;;;;;;12.60;97.21;98898.53;328428;30;1124;-72
2023/04/17 00:27:19;;;;;;;304.52;117.28;;;;;;;12.58;96.98;98899.56;327744;30;1905;-72
2023/04/17 00:27:29;;;;;;;306.17;117.60;;;;;;;12.51;96.92;98895.63;328092;29;2190;-72
2023/04/17 00:27:41;;;;;;;307.20;119.37;;;;;;;12.50;97.43;98899.19;323938;30;2478;-72
2023/04/17 00:27:51;;;;;;;305.10;117.40;;;;;;;12.49;97.26;98900.13;323271;30;1485;-72
2023/04/17 00:28:02;;;;;;;304.60;118.10;;;;;;;12.43;97.45;98903.13;327612;30;2787;-72
2023/04/17 00:28:12;;;;;;;305.95;117.63;;;;;;;12.41;97.64;98899.75;326271;30;3273;-72
2023/04/17 00:28:22;;;;;;;306.37;118.13;;;;;;;12.39;97.66;98902.47;324816;30;1177;-72
2023/04/17 00:28:33;;;;;;;306.20;116.72;;;;;;;12.42;97.79;98896.19;328107;30;3387;-72
2023/04/17 00:28:43;;;;;;;305.67;116.60;;;;;;;12.43;97.88;98900.50;329969;29;3243;-72
2023/04/17 00:28:55;;;;;;;303.85;117.28;;;;;;;12.47;97.84;98899.38;328156;30;3502;-72
2023/04/17 00:29:05;;;;;;;305.15;118.93;;;;;;;12.49;97.53;98897.50;322709;30;2092;-72
2023/04/17 00:29:15;;;;;;;303.20;118.00;;;;;;;12.50;97.61;98894.78;322008;30;2437;-72
2023/04/17 00:29:26;;;;;;;303.85;117.60;;;;;;;12.55;97.45;98905.03;319601;30;2296;-72
2023/04/17 00:29:36;;;;;;;303.77;116.80;;;;;;;12.56;97.22;98901.47;320996;30;820;-72
2023/04/17 00:29:47;;;;;;;303.77;117.18;;;;;;;12.57;97.22;98897.88;321121;30;2931;-72
2023/04/17 00:29:57;;;;;;;308.10;117.87;;;;;;;12.59;96.94;98898.63;319982;30;3435;-72
2023/04/17 00:30:08;;;;;;;307.77;118.05;;;;;;;12.59;96.89;98898.63;318586;31;1241;-72
2023/04/17 00:30:18;;;;;;;310.47;120.90;;;;;;;12.52;96.66;98902.56;322381;30;4004;-72
2023/04/17 00:30:29;;;;;;;304.90;119.55;;;;;;;12.46;97.20;98900.31;320335;30;4486;-72
2023/04/17 00:30:39;;;;;;;305.83;119.60;;;;;;;12.43;97.21;98903.13;321408;30;4541;-72
2023/04/17 00:30:50;;;;;;;305.58;119.00;;;;;;;12.40;97.60;98898.06;320902;30;849;-72
2023/04/17 00:31:00;;;;;;;306.23;119.10;;;;;;;12.41;97.73;98897.13;316232;31;4334;-72
2023/04/17 00:31:10;;;;;;;309.42;119.53;;;;;;;12.41;97.48;98902.38;315472;30;4749;-72
2023/04/17 00:31:21;;;;;;;308.37;118.17;;;;;;;12.39;97.70;98896.38;318567;31;1190;-72
2023/04/17 00:31:31;;;;;;;310.45;117.60;;;;;;;12.38;97.60;98902.56;314852;31;3384;-72
2023/04/17 00:31:42;;;;;;;308.53;116.97;;;;;;;12.37;97.88;98903.50;312601;31;3288;-72
2023/04/17 00:31:52;;;;;;;308.13;117.30;;;;;;;12.39;97.80;98901.63;310479;31;1503;-72
2023/04/17 00:32:03;;;;;;;304.47;116.67;;;;;;;12.38;98.08;98899.94;308694;31;4187;-72
2023/04/17 00:32:14;;;;;;;305.02;118.32;;;;;;;12.40;97.94;98896.28;308364;31;4998;-72
2023/04/17 00:32:24;;;;;;;307.45;119.00;;;;;;;12.43;97.95;98898.72;307703;31;5370;-72
2023/04/17 00:32:35;;;;;;;306.50;119.30;;;;;;;12.47;97.70;98905.47;309591;31;847;-72
2023/04/17 00:32:45;;;;;;;305.85;118.95;;;;;;;12.50;97.83;98904.44;305185;32;6150;-72
2023/04/17 00:32:55;;;;;;;306.13;119.37;;;;;;;12.53;97.94;98899.03;303695;32;6325;-72
2023/04/17 00:33:06;;;;;;;305.80;119.20;;;;;;;12.55;98.01;98898.00;305305;32;1419;-72
2023/04/17 00:33:16;;;;;;;307.60;119.50;;;;;;;12.57;98.16;98906.59;305686;32;5544;-72
2023/04/17 00:33:27;;;;;;;307.40;119.47;;;;;;;12.59;98.06;98903.88;302645;32;6124;-72
2023/04/17 00:33:37;;;;;;;306.95;118.60;;;;;;;12.62;98.31;98906.31;302067;32;1391;-72
2023/04/17 00:33:47;;;;;;;303.80;116.63;;;;;;;12.63;97.89;98900.13;299144;32;4774;-72
2023/04/17 00:34:00;;;;;;;301.10;117.15;;;;;;;12.64;97.61;98902.66;300380;32;5144;-72
2023/04/17 00:34:10;;;;;;;302.80;117.25;;;;;;;12.68;97.14;98900.69;302458;32;5887;-72
2023/04/17 00:34:20;;;;;;;305.13;118.93;;;;;;;12.69;97.02;98898.91;301977;32;1571;-72
2023/04/17 00:34:31;;;;;;;307.73;119.83;;;;;;;12.71;97.06;98902.28;296370;33;7033;-72
2023/04/17 00:34:41;;;;;;;305.93;118.90;;;;;;;12.73;97.03;98906.50;294783;33;7661;-72
2023/04/17 00:34:52;;;;;;;305.38;118.00;;;;;;;12.73;97.14;98906.50;297992;33;826;-72
2023/04/17 00:35:02;;;;;;;305.57;117.90;;;;;;;12.76;97.35;98901.06;290353;33;8896;-72
2023/04/17 00:35:13;;;;;;;306.27;119.57;;;;;;;12.77;97.03;98905.38;292273;33;9405;-72
2023/04/17 00:35:23;;;;;;;306.35;118.85;;;;;;;12.78;96.95;98904.44;295046;33;858;-72
2023/04/17 00:35:34;;;;;;;307.27;118.60;;;;;;;12.79;96.90;98898.25;288337;34;829;-72
2023/04/17 00:35:44;;;;;;;306.23;118.40;;;;;;;12.81;96.53;98909.50;286890;34;8724;-72
2023/04/17 00:35:55;;;;;;;308.03;120.43;;;;;;;12.81;96.49;98906.88;286282;34;6568;-72
2023/04/17 00:36:06;;;;;;;308.60;121.97;;;;;;;12.83;96.32;98907.63;286480;34;804;-72
2023/04/17 00:36:16;;;;;;;308.04;121.30;;;;;;;12.83;96.23;98899.75;282137;34;7197;-72
2023/04/17 00:36:29;;;;;;;309.70;120.57;;;;;;;12.84;96.00;98914.56;282147;34;8484;-72
2023/04/17 00:38:17;;;;;;;305.81;116.06;;;;;;;12.84;96.11;98906.69;2499619;27;20264;-72
2023/04/17 00:38:27;;;;;;;317.80;124.17;;;;;;;12.84;96.21;98914.56;352928;28;1446;-72
2023/04/17 00:38:38;;;;;;;316.90;123.10;;;;;;;12.83;95.85;98902.38;350447;28;847;-72
2023/04/17 00:38:48;;;;;;;314.08;122.78;;;;;;;12.82;95.91;98913.81;350447;28;919;-72
2023/04/17 00:38:59;;;;;;;306.10;120.37;;;;;;;12.80;96.01;98907.81;350235;28;1168;-72
2023/04/17 00:39:09;;;;;;;307.27;121.55;;;;;;;12.79;95.76;98898.25;349942;28;1992;-72
2023/04/17 00:39:20;;;;;;;309.47;122.40;;;;;;;12.83;95.85;98909.41;348351;28;1774;-72
2023/04/17 00:39:30;;;;;;;312.80;121.47;;;;;;;12.82;95.73;98902.47;348598;28;1223;-71
2023/04/17 00:39:41;;;;;;;311.27;120.03;;;;;;;12.82;95.79;98911.19;347372;28;1006;-71
2023/04/17 00:39:51;;;;;;;306.87;117.87;;;;;;;12.82;95.94;98905.94;350096;28;1342;-71
2023/04/17 00:40:02;;;;;;;304.33;118.47;;;;;;;12.83;95.88;98902.38;350287;28;855;-72
2023/04/17 00:40:12;;;;;;;305.95;119.55;;;;;;;12.84;95.88;98900.59;350141;28;1403;-72
2023/04/17 00:40:23;;;;;;;306.90;120.20;;;;;;;12.82;95.98;98903.31;350079;28;1283;-72
2023/04/17 00:40:33;;;;;;;306.38;119.50;;;;;;;12.85;95.85;98899.66;350339;28;887;-72
2023/04/17 00:40:47;;;;;;;307.63;120.50;;;;;;;12.83;95.46;98901.53;348819;28;1354;-72
2023/04/17 00:40:58;;;;;;;309.70;121.30;;;;;;;12.84;95.79;98904.06;348737;28;1283;-72
2023/04/17 00:41:08;;;;;;;309.98;120.40;;;;;;;12.82;95.70;98900.69;348884;28;1564;-72
2023/04/17 00:41:19;;;;;;;306.93;121.23;;;;;;;12.83;95.64;98899.75;348928;28;883;-72
2023/04/17 00:41:29;;;;;;;309.30;121.45;;;;;;;12.85;95.50;98903.13;348854;28;851;-72
2023/04/17 00:41:40;;;;;;;308.17;119.57;;;;;;;12.86;95.87;98901.34;348919;28;946;-72
2023/04/17 00:41:50;;;;;;;309.13;116.67;;;;;;;12.87;96.13;98903.88;347409;28;1314;-72
2023/04/17 00:42:01;;;;;;;309.50;116.30;;;;;;;12.87;95.90;98903.03;346016;28;1311;-72
2023/04/17 00:42:11;;;;;;;309.25;116.90;;;;;;;12.89;96.07;98902.00;343912;28;986;-72
2023/04/17 00:42:22;;;;;;;309.30;118.33;;;;;;;12.88;95.99;98902.94;342309;28;1230;-72
2023/04/17 00:42:32;;;;;;;306.17;119.13;;;;;;;12.88;96.00;98902.94;342113;28;825;-72
2023/04/17 00:42:44;;;;;;;305.35;119.72;;;;;;;12.89;95.89;98903.78;344951;28;1109;-72
2023/04/17 00:43:01;;;;;;;303.92;117.93;;;;;;;12.91;95.81;98902.75;346014;28;1472;-72
2023/04/17 00:43:11;;;;;;;301.83;115.38;;;;;;;12.90;95.33;98903.69;346180;28;1355;-72
2023/04/17 00:43:22;;;;;;;302.50;115.68;;;;;;;12.93;95.66;98908.75;344176;28;1358;-72
2023/04/17 00:43:32;;;;;;;303.87;117.47;;;;;;;12.91;95.81;98905.38;344772;28;1323;-72
2023/04/17 00:43:42;;;;;;;305.63;118.90;;;;;;;12.93;95.83;98903.50;345611;28;825;-72
2023/04/17 00:43:53;;;;;;;308.63;121.23;;;;;;;12.92;95.42;98907.06;344880;28;1081;-72
2023/04/17 00:44:03;;;;;;;310.43;122.37;;;;;;;12.91;95.38;98905.38;346332;28;896;-72
2023/04/17 00:44:14;;;;;;;310.13;122.38;;;;;;;12.91;95.15;98900.13;346502;28;1373;-72
2023/04/17 00:44:24;;;;;;;306.40;119.30;;;;;;;12.88;95.04;98900.31;348702;28;1281;-72
2023/04/17 00:44:34;;;;;;;305.38;117.95;;;;;;;12.90;95.14;98906.31;346227;28;1321;-72
2023/04/17 00:44:45;;;;;;;305.80;119.00;;;;;;;12.89;94.95;98909.03;341067;28;1355;-72
2023/04/17 00:44:56;;;;;;;305.85;119.63;;;;;;;12.89;94.76;98906.41;340638;28;1127;-72
2023/04/17 00:45:09;;;;;;;307.73;119.68;;;;;;;12.88;94.89;98902.94;339045;29;1054;-72
2023/04/17 00:45:20;;;;;;;306.27;119.32;;;;;;;12.89;95.15;98904.63;336927;29;816;-72
2023/04/17 00:45:30;;;;;;;302.73;118.90;;;;;;;12.88;95.05;98908.19;338261;29;842;-72
2023/04/17 00:45:41;;;;;;;302.65;118.68;;;;;;;12.87;94.60;98909.13;342684;28;1256;-72
2023/04/17 00:45:51;;;;;;;303.00;117.90;;;;;;;12.87;94.51;98906.50;341756;28;1234;-72
2023/04/17 00:46:03;;;;;;;304.45;119.53;;;;;;;12.90;94.21;98908.09;338201;29;1306;-72
2023/04/17 00:46:13;;;;;;;304.73;119.30;;;;;;;12.90;94.13;98914.22;334720;29;1282;-72
2023/04/17 00:46:23;;;;;;;306.30;120.33;;;;;;;12.89;94.34;98907.25;333801;29;1498;-72
2023/04/17 00:46:34;;;;;;;306.58;119.43;;;;;;;12.89;94.14;98909.88;336802;29;1311;-72
2023/04/17 00:46:44;;;;;;;307.83;121.40;;;;;;;12.89;94.14;98912.53;336519;29;1271;-71
2023/04/17 00:46:55;;;;;;;305.25;119.53;;;;;;;12.84;93.82;98906.69;336097;29;1812;-71
2023/04/17 00:47:06;;;;;;;305.85;119.35;;;;;;;12.80;94.07;98912.22;334090;29;1916;-71
2023/04/17 00:47:16;;;;;;;305.40;117.83;;;;;;;12.80;94.42;98913.06;333841;29;1549;-71
2023/04/17 00:47:27;;;;;;;304.92;117.55;;;;;;;12.81;94.17;98912.13;334940;29;1212;-71
2023/04/17 00:47:37;;;;;;;304.57;116.10;;;;;;;12.80;94.24;98914.84;334075;29;2352;-72
2023/04/17 00:47:48;;;;;;;304.75;116.93;;;;;;;12.81;94.27;98913.91;335450;29;1995;-72
2023/04/17 00:47:58;;;;;;;308.73;119.00;;;;;;;12.80;94.26;98915.69;336471;29;1187;-72
2023/04/17 00:48:09;;;;;;;310.15;121.30;;;;;;;12.78;94.56;98909.69;332867;29;2095;-72
2023/04/17 00:48:22;;;;;;;313.02;121.82;;;;;;;12.78;94.36;98914.94;324565;30;2157;-72
2023/04/17 00:48:33;;;;;;;310.27;121.72;;;;;;;12.79;94.39;98908.75;325042;30;2110;-72
2023/04/17 00:48:43;;;;;;;306.60;120.07;;;;;;;12.80;94.56;98915.69;327371;30;1946;-72
2023/04/17 00:48:54;;;;;;;305.67;120.03;;;;;;;12.81;94.66;98912.13;324723;30;2098;-72
2023/04/17 00:49:04;;;;;;;310.40;120.63;;;;;;;12.81;94.64;98899.00;323225;30;919;-72
2023/04/17 00:49:14;;;;;;;310.30;121.97;;;;;;;12.80;94.59;98913.06;323770;30;2270;-72
2023/04/17 00:49:25;;;;;;;310.43;120.60;;;;;;;12.84;94.60;98913.75;325022;30;1778;-72
2023/04/17 00:49:35;;;;;;;307.83;118.72;;;;;;;12.82;94.78;98913.81;326347;30;1897;-72
2023/04/17 00:49:46;;;;;;;307.97;117.27;;;;;;;12.83;94.94;98905.00;329830;29;1326;-72
2023/04/17 00:49:56;;;;;;;307.42;117.43;;;;;;;12.84;94.73;98916.38;326546;30;1395;-72
2023/04/17 00:50:07;;;;;;;311.20;119.50;;;;;;;12.83;94.48;98917.31;326731;30;1897;-72
2023/04/17 00:50:17;;;;;;;313.52;121.80;;;;;;;12.82;94.15;98903.31;325507;30;928;-72
2023/04/17 00:50:28;;;;;;;312.10;120.82;;;;;;;12.81;94.09;98909.50;323054;30;2015;-72
2023/04/17 00:50:38;;;;;;;307.80;119.47;;;;;;;12.81;94.18;98914.75;324079;30;2455;-72
2023/04/17 00:50:49;;;;;;;305.48;118.22;;;;;;;12.81;94.36;98913.91;325659;30;1471;-72
2023/04/17 00:51:01;;;;;;;306.40;119.73;;;;;;;12.80;94.27;98913.06;324943;30;2622;-72
2023/04/17 00:51:11;;;;;;;309.83;120.95;;;;;;;12.82;94.19;98916.44;322907;30;2625;-72
2023/04/17 00:51:21;;;;;;;308.23;120.80;;;;;;;12.80;94.12;98913.06;321920;30;2717;-72
2023/04/17 00:51:32;;;;;;;310.80;120.73;;;;;;;12.80;93.73;98913.06;323286;30;1339;-72
2023/04/17 00:51:42;;;;;;;311.50;120.80;;;;;;;12.79;93.94;98908.75;322029;30;1986;-72
2023/04/17 00:51:53;;;;;;;310.33;120.17;;;;;;;12.78;93.90;98911.47;320477;30;1525;-72
2023/04/17 00:52:03;;;;;;;307.83;120.40;;;;;;;12.79;93.72;98916.63;320100;30;995;-72